sensor_id;sensor_type;location;lat;lon;timestamp;P1;durP1;ratioP1;P2;durP2;ratioP2
18082;SDS011;9168;51.194;6.840;2022-11-12T00:00:56;18.97;;;6.53;;
18082;SDS011;9168;51.194;6.840;2022-11-12T00:03:24;13.87;;;6.60;;
18082;SDS011;9168;51.194;6.840;2022-11-12T00:05:51;14.27;;;6.30;;
18082;SDS011;9168;51.194;6.840;2022-11-12T00:08:18;13.60;;;5.87;;
18082;SDS011;9168;51.194;6.840;2022-11-12T00:10:47;15.37;;;5.83;;
18082;SDS011;9168;51.194;6.840;2022-11-12T00:13:14;17.75;;;6.70;;
18082;SDS011;9168;51.194;6.840;2022-11-12T00:15:41;12.93;;;5.93;;
18082;SDS011;9168;51.194;6.840;2022-11-12T00:18:08;16.65;;;6.20;;
18082;SDS011;9168;51.194;6.840;2022-11-12T00:20:34;13.13;;;5.83;;
18082;SDS011;9168;51.194;6.840;2022-11-12T00:23:01;11.67;;;5.87;;
18082;SDS011;9168;51.194;6.840;2022-11-12T00:25:29;15.70;;;6.13;;
18082;SDS011;9168;51.194;6.840;2022-11-12T00:28:00;15.57;;;5.60;;
18082;SDS011;9168;51.194;6.840;2022-11-12T00:30:28;11.77;;;5.47;;
18082;SDS011;9168;51.194;6.840;2022-11-12T00:32:56;12.00;;;6.05;;
18082;SDS011;9168;51.194;6.840;2022-11-12T00:35:26;11.70;;;5.43;;
18082;SDS011;9168;51.194;6.840;2022-11-12T00:37:53;14.63;;;6.57;;
18082;SDS011;9168;51.194;6.840;2022-11-12T00:40:21;14.87;;;6.37;;
18082;SDS011;9168;51.194;6.840;2022-11-12T00:42:49;16.55;;;5.88;;
18082;SDS011;9168;51.194;6.840;2022-11-12T00:45:18;13.50;;;5.83;;
18082;SDS011;9168;51.194;6.840;2022-11-12T00:47:45;12.00;;;5.80;;
18082;SDS011;9168;51.194;6.840;2022-11-12T00:50:12;13.47;;;5.90;;
18082;SDS011;9168;51.194;6.840;2022-11-12T00:52:40;14.00;;;6.10;;
18082;SDS011;9168;51.194;6.840;2022-11-12T00:55:07;14.77;;;6.87;;
18082;SDS011;9168;51.194;6.840;2022-11-12T00:57:34;12.80;;;5.90;;
18082;SDS011;9168;51.194;6.840;2022-11-12T01:00:01;12.50;;;6.43;;
18082;SDS011;9168;51.194;6.840;2022-11-12T01:02:30;15.97;;;5.73;;
18082;SDS011;9168;51.194;6.840;2022-11-12T01:04:57;15.63;;;5.87;;
18082;SDS011;9168;51.194;6.840;2022-11-12T01:07:24;14.43;;;6.80;;
18082;SDS011;9168;51.194;6.840;2022-11-12T01:09:52;12.17;;;5.60;;
18082;SDS011;9168;51.194;6.840;2022-11-12T01:12:19;13.73;;;5.83;;
18082;SDS011;9168;51.194;6.840;2022-11-12T01:14:46;15.10;;;6.20;;
18082;SDS011;9168;51.194;6.840;2022-11-12T01:17:12;13.80;;;5.60;;
18082;SDS011;9168;51.194;6.840;2022-11-12T01:19:41;12.10;;;5.67;;
18082;SDS011;9168;51.194;6.840;2022-11-12T01:22:07;13.37;;;5.53;;
18082;SDS011;9168;51.194;6.840;2022-11-12T01:24:36;11.80;;;5.80;;
18082;SDS011;9168;51.194;6.840;2022-11-12T01:27:03;12.23;;;5.70;;
18082;SDS011;9168;51.194;6.840;2022-11-12T01:29:30;11.83;;;6.03;;
18082;SDS011;9168;51.194;6.840;2022-11-12T01:31:56;11.37;;;6.00;;
18082;SDS011;9168;51.194;6.840;2022-11-12T01:34:24;16.57;;;5.93;;
18082;SDS011;9168;51.194;6.840;2022-11-12T01:36:53;10.57;;;6.03;;
18082;SDS011;9168;51.194;6.840;2022-11-12T01:39:19;14.43;;;6.37;;
18082;SDS011;9168;51.194;6.840;2022-11-12T01:41:46;12.13;;;6.03;;
18082;SDS011;9168;51.194;6.840;2022-11-12T01:44:14;14.77;;;6.27;;
18082;SDS011;9168;51.194;6.840;2022-11-12T01:46:50;17.20;;;6.63;;
18082;SDS011;9168;51.194;6.840;2022-11-12T01:49:25;13.13;;;5.97;;
18082;SDS011;9168;51.194;6.840;2022-11-12T01:51:58;13.23;;;6.23;;
18082;SDS011;9168;51.194;6.840;2022-11-12T01:54:29;18.63;;;6.43;;
18082;SDS011;9168;51.194;6.840;2022-11-12T01:56:56;13.27;;;6.50;;
18082;SDS011;9168;51.194;6.840;2022-11-12T01:59:25;12.40;;;6.30;;
18082;SDS011;9168;51.194;6.840;2022-11-12T02:01:55;18.13;;;6.27;;
18082;SDS011;9168;51.194;6.840;2022-11-12T02:04:22;15.07;;;6.60;;
18082;SDS011;9168;51.194;6.840;2022-11-12T02:06:51;17.03;;;7.40;;
18082;SDS011;9168;51.194;6.840;2022-11-12T02:09:22;15.03;;;6.67;;
18082;SDS011;9168;51.194;6.840;2022-11-12T02:11:49;16.67;;;6.77;;
18082;SDS011;9168;51.194;6.840;2022-11-12T02:14:16;10.50;;;5.70;;
18082;SDS011;9168;51.194;6.840;2022-11-12T02:16:42;15.43;;;6.23;;
18082;SDS011;9168;51.194;6.840;2022-11-12T02:19:11;15.30;;;6.17;;
18082;SDS011;9168;51.194;6.840;2022-11-12T02:21:42;14.13;;;6.57;;
18082;SDS011;9168;51.194;6.840;2022-11-12T02:24:30;14.17;;;5.87;;
18082;SDS011;9168;51.194;6.840;2022-11-12T02:26:58;11.83;;;5.70;;
18082;SDS011;9168;51.194;6.840;2022-11-12T02:29:25;13.27;;;6.00;;
18082;SDS011;9168;51.194;6.840;2022-11-12T02:31:52;13.00;;;6.13;;
18082;SDS011;9168;51.194;6.840;2022-11-12T02:34:18;13.37;;;5.87;;
18082;SDS011;9168;51.194;6.840;2022-11-12T02:36:47;13.23;;;5.93;;
18082;SDS011;9168;51.194;6.840;2022-11-12T02:39:13;12.00;;;5.70;;
18082;SDS011;9168;51.194;6.840;2022-11-12T02:41:40;11.23;;;5.40;;
18082;SDS011;9168;51.194;6.840;2022-11-12T02:44:07;12.17;;;6.10;;
18082;SDS011;9168;51.194;6.840;2022-11-12T02:46:34;15.53;;;6.13;;
18082;SDS011;9168;51.194;6.840;2022-11-12T02:49:01;10.97;;;5.90;;
18082;SDS011;9168;51.194;6.840;2022-11-12T02:51:28;12.23;;;5.93;;
18082;SDS011;9168;51.194;6.840;2022-11-12T02:53:56;12.77;;;5.50;;
18082;SDS011;9168;51.194;6.840;2022-11-12T02:56:23;12.80;;;6.07;;
18082;SDS011;9168;51.194;6.840;2022-11-12T02:58:50;13.03;;;5.97;;
18082;SDS011;9168;51.194;6.840;2022-11-12T03:01:16;12.03;;;5.40;;
18082;SDS011;9168;51.194;6.840;2022-11-12T03:03:43;10.30;;;5.77;;
18082;SDS011;9168;51.194;6.840;2022-11-12T03:06:10;14.47;;;5.80;;
18082;SDS011;9168;51.194;6.840;2022-11-12T03:08:37;14.00;;;5.63;;
18082;SDS011;9168;51.194;6.840;2022-11-12T03:11:09;11.57;;;6.00;;
18082;SDS011;9168;51.194;6.840;2022-11-12T03:13:38;12.83;;;5.57;;
18082;SDS011;9168;51.194;6.840;2022-11-12T03:16:06;10.87;;;5.67;;
18082;SDS011;9168;51.194;6.840;2022-11-12T03:18:33;11.43;;;5.23;;
18082;SDS011;9168;51.194;6.840;2022-11-12T03:21:01;11.23;;;5.90;;
18082;SDS011;9168;51.194;6.840;2022-11-12T03:23:29;11.80;;;5.80;;
18082;SDS011;9168;51.194;6.840;2022-11-12T03:25:56;11.93;;;5.87;;
18082;SDS011;9168;51.194;6.840;2022-11-12T03:28:24;16.60;;;5.37;;
18082;SDS011;9168;51.194;6.840;2022-11-12T03:30:55;12.40;;;5.67;;
18082;SDS011;9168;51.194;6.840;2022-11-12T03:33:23;12.10;;;5.67;;
18082;SDS011;9168;51.194;6.840;2022-11-12T03:35:50;12.53;;;5.40;;
18082;SDS011;9168;51.194;6.840;2022-11-12T03:38:17;10.80;;;5.20;;
18082;SDS011;9168;51.194;6.840;2022-11-12T03:40:44;11.47;;;5.20;;
18082;SDS011;9168;51.194;6.840;2022-11-12T03:43:11;14.50;;;5.23;;
18082;SDS011;9168;51.194;6.840;2022-11-12T03:45:39;13.70;;;5.53;;
18082;SDS011;9168;51.194;6.840;2022-11-12T03:48:06;12.30;;;5.20;;
18082;SDS011;9168;51.194;6.840;2022-11-12T03:50:33;12.57;;;5.83;;
18082;SDS011;9168;51.194;6.840;2022-11-12T03:53:00;13.20;;;5.67;;
18082;SDS011;9168;51.194;6.840;2022-11-12T03:55:27;12.93;;;5.00;;
18082;SDS011;9168;51.194;6.840;2022-11-12T03:57:55;11.33;;;5.10;;
18082;SDS011;9168;51.194;6.840;2022-11-12T04:00:23;14.77;;;5.20;;
18082;SDS011;9168;51.194;6.840;2022-11-12T04:02:53;12.57;;;5.10;;
18082;SDS011;9168;51.194;6.840;2022-11-12T04:05:21;12.83;;;5.80;;
18082;SDS011;9168;51.194;6.840;2022-11-12T04:08:06;17.47;;;6.13;;
18082;SDS011;9168;51.194;6.840;2022-11-12T04:10:54;13.13;;;5.93;;
18082;SDS011;9168;51.194;6.840;2022-11-12T04:16:43;12.17;;;5.73;;
18082;SDS011;9168;51.194;6.840;2022-11-12T04:19:28;12.40;;;5.40;;
18082;SDS011;9168;51.194;6.840;2022-11-12T04:22:12;17.30;;;5.33;;
18082;SDS011;9168;51.194;6.840;2022-11-12T04:24:40;14.87;;;6.00;;
18082;SDS011;9168;51.194;6.840;2022-11-12T04:27:25;15.00;;;5.80;;
18082;SDS011;9168;51.194;6.840;2022-11-12T04:29:54;17.07;;;5.87;;
18082;SDS011;9168;51.194;6.840;2022-11-12T04:32:40;14.30;;;6.07;;
18082;SDS011;9168;51.194;6.840;2022-11-12T04:35:14;13.83;;;6.33;;
18082;SDS011;9168;51.194;6.840;2022-11-12T04:37:42;16.03;;;6.33;;
18082;SDS011;9168;51.194;6.840;2022-11-12T04:40:10;13.90;;;5.90;;
18082;SDS011;9168;51.194;6.840;2022-11-12T04:42:56;18.30;;;6.43;;
18082;SDS011;9168;51.194;6.840;2022-11-12T04:45:41;14.00;;;6.13;;
18082;SDS011;9168;51.194;6.840;2022-11-12T04:48:10;10.60;;;5.53;;
18082;SDS011;9168;51.194;6.840;2022-11-12T04:50:38;13.23;;;5.43;;
18082;SDS011;9168;51.194;6.840;2022-11-12T04:53:06;18.63;;;5.80;;
18082;SDS011;9168;51.194;6.840;2022-11-12T04:55:32;11.67;;;5.73;;
18082;SDS011;9168;51.194;6.840;2022-11-12T04:57:59;12.70;;;5.97;;
18082;SDS011;9168;51.194;6.840;2022-11-12T05:00:26;12.17;;;5.43;;
18082;SDS011;9168;51.194;6.840;2022-11-12T05:02:54;17.97;;;5.83;;
18082;SDS011;9168;51.194;6.840;2022-11-12T05:05:21;10.70;;;5.43;;
18082;SDS011;9168;51.194;6.840;2022-11-12T05:07:49;14.07;;;5.40;;
18082;SDS011;9168;51.194;6.840;2022-11-12T05:10:16;17.57;;;5.80;;
18082;SDS011;9168;51.194;6.840;2022-11-12T05:12:43;10.23;;;5.63;;
18082;SDS011;9168;51.194;6.840;2022-11-12T05:15:10;14.00;;;5.73;;
18082;SDS011;9168;51.194;6.840;2022-11-12T05:17:40;10.83;;;5.20;;
18082;SDS011;9168;51.194;6.840;2022-11-12T05:20:08;13.40;;;5.07;;
18082;SDS011;9168;51.194;6.840;2022-11-12T05:22:36;15.07;;;5.20;;
18082;SDS011;9168;51.194;6.840;2022-11-12T05:25:04;12.10;;;5.10;;
18082;SDS011;9168;51.194;6.840;2022-11-12T05:27:32;11.73;;;5.00;;
18082;SDS011;9168;51.194;6.840;2022-11-12T05:29:59;10.43;;;5.10;;
18082;SDS011;9168;51.194;6.840;2022-11-12T05:32:26;15.47;;;5.60;;
18082;SDS011;9168;51.194;6.840;2022-11-12T05:34:53;14.53;;;5.70;;
18082;SDS011;9168;51.194;6.840;2022-11-12T05:37:20;9.87;;;5.30;;
18082;SDS011;9168;51.194;6.840;2022-11-12T05:39:47;10.37;;;5.23;;
18082;SDS011;9168;51.194;6.840;2022-11-12T05:42:15;15.50;;;5.33;;
18082;SDS011;9168;51.194;6.840;2022-11-12T05:44:42;12.27;;;5.60;;
18082;SDS011;9168;51.194;6.840;2022-11-12T05:47:09;14.07;;;5.43;;
18082;SDS011;9168;51.194;6.840;2022-11-12T05:49:35;12.47;;;5.37;;
18082;SDS011;9168;51.194;6.840;2022-11-12T05:52:02;17.00;;;5.93;;
18082;SDS011;9168;51.194;6.840;2022-11-12T05:54:30;14.65;;;5.22;;
18082;SDS011;9168;51.194;6.840;2022-11-12T05:56:56;13.63;;;5.83;;
18082;SDS011;9168;51.194;6.840;2022-11-12T05:59:25;14.73;;;5.23;;
18082;SDS011;9168;51.194;6.840;2022-11-12T06:01:51;12.13;;;5.10;;
18082;SDS011;9168;51.194;6.840;2022-11-12T06:04:19;12.20;;;5.30;;
18082;SDS011;9168;51.194;6.840;2022-11-12T06:06:47;12.67;;;5.17;;
18082;SDS011;9168;51.194;6.840;2022-11-12T06:09:14;13.33;;;5.80;;
18082;SDS011;9168;51.194;6.840;2022-11-12T06:11:40;12.33;;;5.03;;
18082;SDS011;9168;51.194;6.840;2022-11-12T06:14:07;11.03;;;5.07;;
18082;SDS011;9168;51.194;6.840;2022-11-12T06:16:36;15.03;;;5.77;;
18082;SDS011;9168;51.194;6.840;2022-11-12T06:19:03;11.10;;;4.50;;
18082;SDS011;9168;51.194;6.840;2022-11-12T06:21:30;11.93;;;5.00;;
18082;SDS011;9168;51.194;6.840;2022-11-12T06:23:57;8.63;;;4.33;;
18082;SDS011;9168;51.194;6.840;2022-11-12T06:26:25;12.43;;;5.70;;
18082;SDS011;9168;51.194;6.840;2022-11-12T06:28:54;14.10;;;5.67;;
18082;SDS011;9168;51.194;6.840;2022-11-12T06:31:22;13.80;;;5.13;;
18082;SDS011;9168;51.194;6.840;2022-11-12T06:33:50;13.67;;;5.37;;
18082;SDS011;9168;51.194;6.840;2022-11-12T06:36:17;13.60;;;5.53;;
18082;SDS011;9168;51.194;6.840;2022-11-12T06:38:45;12.87;;;5.80;;
18082;SDS011;9168;51.194;6.840;2022-11-12T06:41:12;9.80;;;5.20;;
18082;SDS011;9168;51.194;6.840;2022-11-12T06:43:39;13.40;;;4.90;;
18082;SDS011;9168;51.194;6.840;2022-11-12T06:46:08;14.00;;;5.80;;
18082;SDS011;9168;51.194;6.840;2022-11-12T06:48:37;14.07;;;5.80;;
18082;SDS011;9168;51.194;6.840;2022-11-12T06:51:06;12.73;;;5.83;;
18082;SDS011;9168;51.194;6.840;2022-11-12T06:53:35;11.87;;;5.40;;
18082;SDS011;9168;51.194;6.840;2022-11-12T06:56:02;12.50;;;5.53;;
18082;SDS011;9168;51.194;6.840;2022-11-12T06:58:30;12.47;;;4.90;;
18082;SDS011;9168;51.194;6.840;2022-11-12T07:01:02;14.17;;;5.07;;
18082;SDS011;9168;51.194;6.840;2022-11-12T07:03:30;11.37;;;5.10;;
18082;SDS011;9168;51.194;6.840;2022-11-12T07:05:57;12.80;;;5.87;;
18082;SDS011;9168;51.194;6.840;2022-11-12T07:08:30;13.57;;;6.17;;
18082;SDS011;9168;51.194;6.840;2022-11-12T07:10:57;13.00;;;5.53;;
18082;SDS011;9168;51.194;6.840;2022-11-12T07:13:24;15.27;;;6.33;;
18082;SDS011;9168;51.194;6.840;2022-11-12T07:15:50;14.97;;;6.70;;
18082;SDS011;9168;51.194;6.840;2022-11-12T07:18:17;12.63;;;6.23;;
18082;SDS011;9168;51.194;6.840;2022-11-12T07:20:44;12.37;;;5.60;;
18082;SDS011;9168;51.194;6.840;2022-11-12T07:23:11;15.03;;;6.17;;
18082;SDS011;9168;51.194;6.840;2022-11-12T07:25:39;15.27;;;6.10;;
18082;SDS011;9168;51.194;6.840;2022-11-12T07:28:06;14.13;;;6.30;;
18082;SDS011;9168;51.194;6.840;2022-11-12T07:30:33;14.03;;;6.10;;
18082;SDS011;9168;51.194;6.840;2022-11-12T07:33:00;14.10;;;5.83;;
18082;SDS011;9168;51.194;6.840;2022-11-12T07:35:26;18.90;;;6.47;;
18082;SDS011;9168;51.194;6.840;2022-11-12T07:37:53;16.27;;;6.50;;
18082;SDS011;9168;51.194;6.840;2022-11-12T07:40:20;14.30;;;6.07;;
18082;SDS011;9168;51.194;6.840;2022-11-12T07:42:49;12.93;;;5.77;;
18082;SDS011;9168;51.194;6.840;2022-11-12T07:45:16;20.07;;;5.90;;
18082;SDS011;9168;51.194;6.840;2022-11-12T07:47:42;10.83;;;5.40;;
18082;SDS011;9168;51.194;6.840;2022-11-12T07:50:09;17.30;;;5.97;;
18082;SDS011;9168;51.194;6.840;2022-11-12T07:52:36;16.23;;;6.43;;
18082;SDS011;9168;51.194;6.840;2022-11-12T07:55:03;12.53;;;6.00;;
18082;SDS011;9168;51.194;6.840;2022-11-12T07:57:31;13.13;;;6.27;;
18082;SDS011;9168;51.194;6.840;2022-11-12T07:59:59;13.77;;;6.40;;
18082;SDS011;9168;51.194;6.840;2022-11-12T08:02:28;15.87;;;6.53;;
18082;SDS011;9168;51.194;6.840;2022-11-12T08:04:55;13.87;;;5.97;;
18082;SDS011;9168;51.194;6.840;2022-11-12T08:07:22;18.90;;;6.47;;
18082;SDS011;9168;51.194;6.840;2022-11-12T08:09:48;15.60;;;5.47;;
18082;SDS011;9168;51.194;6.840;2022-11-12T08:12:15;12.93;;;5.60;;
18082;SDS011;9168;51.194;6.840;2022-11-12T08:14:42;15.60;;;5.97;;
18082;SDS011;9168;51.194;6.840;2022-11-12T08:17:10;14.27;;;5.90;;
18082;SDS011;9168;51.194;6.840;2022-11-12T08:19:37;12.27;;;5.60;;
18082;SDS011;9168;51.194;6.840;2022-11-12T08:22:04;14.53;;;5.47;;
18082;SDS011;9168;51.194;6.840;2022-11-12T08:24:31;11.15;;;5.68;;
18082;SDS011;9168;51.194;6.840;2022-11-12T08:26:58;12.60;;;5.37;;
18082;SDS011;9168;51.194;6.840;2022-11-12T08:29:24;15.80;;;5.65;;
18082;SDS011;9168;51.194;6.840;2022-11-12T08:31:51;16.40;;;5.30;;
18082;SDS011;9168;51.194;6.840;2022-11-12T08:34:19;14.07;;;5.32;;
18082;SDS011;9168;51.194;6.840;2022-11-12T08:36:46;12.05;;;5.07;;
18082;SDS011;9168;51.194;6.840;2022-11-12T08:39:14;16.30;;;5.13;;
18082;SDS011;9168;51.194;6.840;2022-11-12T08:41:41;11.65;;;5.00;;
18082;SDS011;9168;51.194;6.840;2022-11-12T08:44:08;15.83;;;5.27;;
18082;SDS011;9168;51.194;6.840;2022-11-12T08:46:35;15.07;;;5.30;;
18082;SDS011;9168;51.194;6.840;2022-11-12T08:49:03;15.40;;;5.35;;
18082;SDS011;9168;51.194;6.840;2022-11-12T08:51:31;15.55;;;5.70;;
18082;SDS011;9168;51.194;6.840;2022-11-12T08:53:58;13.50;;;5.43;;
18082;SDS011;9168;51.194;6.840;2022-11-12T08:56:25;13.60;;;5.57;;
18082;SDS011;9168;51.194;6.840;2022-11-12T08:58:51;13.52;;;5.32;;
18082;SDS011;9168;51.194;6.840;2022-11-12T09:01:18;12.00;;;5.15;;
18082;SDS011;9168;51.194;6.840;2022-11-12T09:03:45;15.27;;;5.75;;
18082;SDS011;9168;51.194;6.840;2022-11-12T09:06:14;14.43;;;4.82;;
18082;SDS011;9168;51.194;6.840;2022-11-12T09:08:42;9.45;;;4.88;;
18082;SDS011;9168;51.194;6.840;2022-11-12T09:11:09;10.45;;;4.70;;
18082;SDS011;9168;51.194;6.840;2022-11-12T09:13:36;10.52;;;4.47;;
18082;SDS011;9168;51.194;6.840;2022-11-12T09:16:04;8.23;;;3.92;;
18082;SDS011;9168;51.194;6.840;2022-11-12T09:18:32;7.70;;;4.05;;
18082;SDS011;9168;51.194;6.840;2022-11-12T09:21:00;11.68;;;4.45;;
18082;SDS011;9168;51.194;6.840;2022-11-12T09:23:28;9.30;;;4.88;;
18082;SDS011;9168;51.194;6.840;2022-11-12T09:25:57;10.18;;;4.53;;
18082;SDS011;9168;51.194;6.840;2022-11-12T09:28:24;9.60;;;4.93;;
18082;SDS011;9168;51.194;6.840;2022-11-12T09:30:51;12.32;;;4.93;;
18082;SDS011;9168;51.194;6.840;2022-11-12T09:33:19;9.65;;;4.22;;
18082;SDS011;9168;51.194;6.840;2022-11-12T09:35:47;9.18;;;4.22;;
18082;SDS011;9168;51.194;6.840;2022-11-12T09:38:16;10.80;;;4.32;;
18082;SDS011;9168;51.194;6.840;2022-11-12T09:40:51;9.15;;;4.22;;
18082;SDS011;9168;51.194;6.840;2022-11-12T09:43:37;10.43;;;3.80;;
18082;SDS011;9168;51.194;6.840;2022-11-12T09:46:10;8.63;;;4.03;;
18082;SDS011;9168;51.194;6.840;2022-11-12T09:48:50;9.43;;;3.90;;
18082;SDS011;9168;51.194;6.840;2022-11-12T09:51:24;8.90;;;4.20;;
18082;SDS011;9168;51.194;6.840;2022-11-12T09:53:54;8.57;;;3.83;;
18082;SDS011;9168;51.194;6.840;2022-11-12T09:56:23;10.50;;;3.65;;
18082;SDS011;9168;51.194;6.840;2022-11-12T09:58:53;9.43;;;4.22;;
18082;SDS011;9168;51.194;6.840;2022-11-12T10:01:21;13.20;;;3.85;;
18082;SDS011;9168;51.194;6.840;2022-11-12T10:03:54;6.55;;;3.65;;
18082;SDS011;9168;51.194;6.840;2022-11-12T10:06:33;10.52;;;4.40;;
18082;SDS011;9168;51.194;6.840;2022-11-12T10:09:03;9.45;;;3.83;;
18082;SDS011;9168;51.194;6.840;2022-11-12T10:11:48;8.80;;;3.95;;
18082;SDS011;9168;51.194;6.840;2022-11-12T10:14:51;8.15;;;4.03;;
18082;SDS011;9168;51.194;6.840;2022-11-12T10:17:53;9.77;;;4.07;;
18082;SDS011;9168;51.194;6.840;2022-11-12T10:20:28;10.23;;;4.03;;
18082;SDS011;9168;51.194;6.840;2022-11-12T10:23:08;8.88;;;4.47;;
18082;SDS011;9168;51.194;6.840;2022-11-12T10:25:43;12.30;;;4.10;;
18082;SDS011;9168;51.194;6.840;2022-11-12T10:28:15;9.77;;;3.85;;
18082;SDS011;9168;51.194;6.840;2022-11-12T10:30:51;11.07;;;4.32;;
18082;SDS011;9168;51.194;6.840;2022-11-12T10:33:21;8.68;;;4.18;;
18082;SDS011;9168;51.194;6.840;2022-11-12T10:35:48;7.50;;;4.60;;
18082;SDS011;9168;51.194;6.840;2022-11-12T10:38:19;11.25;;;4.28;;
18082;SDS011;9168;51.194;6.840;2022-11-12T10:40:52;9.45;;;4.32;;
18082;SDS011;9168;51.194;6.840;2022-11-12T10:43:19;11.98;;;4.32;;
18082;SDS011;9168;51.194;6.840;2022-11-12T10:45:48;8.77;;;3.92;;
18082;SDS011;9168;51.194;6.840;2022-11-12T10:48:21;9.43;;;4.28;;
18082;SDS011;9168;51.194;6.840;2022-11-12T10:50:52;9.05;;;4.28;;
18082;SDS011;9168;51.194;6.840;2022-11-12T10:56:21;10.43;;;4.07;;
18082;SDS011;9168;51.194;6.840;2022-11-12T11:01:35;15.18;;;4.22;;
18082;SDS011;9168;51.194;6.840;2022-11-12T11:04:04;7.20;;;3.92;;
18082;SDS011;9168;51.194;6.840;2022-11-12T11:06:40;9.35;;;4.13;;
18082;SDS011;9168;51.194;6.840;2022-11-12T11:09:12;9.77;;;3.75;;
18082;SDS011;9168;51.194;6.840;2022-11-12T11:11:47;7.28;;;3.45;;
18082;SDS011;9168;51.194;6.840;2022-11-12T11:14:25;9.38;;;3.58;;
18082;SDS011;9168;51.194;6.840;2022-11-12T11:16:54;6.65;;;3.88;;
18082;SDS011;9168;51.194;6.840;2022-11-12T11:19:27;11.13;;;3.60;;
18082;SDS011;9168;51.194;6.840;2022-11-12T11:22:05;7.90;;;3.60;;
18082;SDS011;9168;51.194;6.840;2022-11-12T11:24:50;9.15;;;3.85;;
18082;SDS011;9168;51.194;6.840;2022-11-12T11:27:27;6.80;;;3.75;;
18082;SDS011;9168;51.194;6.840;2022-11-12T11:30:00;12.05;;;3.63;;
18082;SDS011;9168;51.194;6.840;2022-11-12T11:32:41;9.98;;;3.80;;
18082;SDS011;9168;51.194;6.840;2022-11-12T11:35:23;8.57;;;4.30;;
18082;SDS011;9168;51.194;6.840;2022-11-12T11:38:00;9.45;;;3.35;;
18082;SDS011;9168;51.194;6.840;2022-11-12T11:40:42;8.30;;;3.75;;
18082;SDS011;9168;51.194;6.840;2022-11-12T11:43:23;8.77;;;3.85;;
18082;SDS011;9168;51.194;6.840;2022-11-12T11:46:09;6.65;;;3.72;;
18082;SDS011;9168;51.194;6.840;2022-11-12T11:48:46;8.80;;;3.67;;
18082;SDS011;9168;51.194;6.840;2022-11-12T11:51:28;7.07;;;3.65;;
18082;SDS011;9168;51.194;6.840;2022-11-12T11:54:06;7.93;;;3.30;;
18082;SDS011;9168;51.194;6.840;2022-11-12T11:56:43;7.57;;;3.45;;
18082;SDS011;9168;51.194;6.840;2022-11-12T11:59:15;6.63;;;3.58;;
18082;SDS011;9168;51.194;6.840;2022-11-12T12:02:00;9.50;;;3.90;;
18082;SDS011;9168;51.194;6.840;2022-11-12T12:04:44;8.02;;;3.30;;
18082;SDS011;9168;51.194;6.840;2022-11-12T12:07:20;7.10;;;3.80;;
18082;SDS011;9168;51.194;6.840;2022-11-12T12:09:57;7.60;;;3.47;;
18082;SDS011;9168;51.194;6.840;2022-11-12T12:12:34;11.98;;;3.85;;
18082;SDS011;9168;51.194;6.840;2022-11-12T12:18:15;11.10;;;3.78;;
18082;SDS011;9168;51.194;6.840;2022-11-12T12:20:50;9.20;;;3.83;;
18082;SDS011;9168;51.194;6.840;2022-11-12T12:23:26;7.95;;;3.58;;
18082;SDS011;9168;51.194;6.840;2022-11-12T12:25:59;7.00;;;3.55;;
18082;SDS011;9168;51.194;6.840;2022-11-12T12:28:32;10.63;;;3.38;;
18082;SDS011;9168;51.194;6.840;2022-11-12T12:31:04;6.30;;;3.65;;
18082;SDS011;9168;51.194;6.840;2022-11-12T12:33:38;7.68;;;3.65;;
18082;SDS011;9168;51.194;6.840;2022-11-12T12:36:13;9.35;;;3.28;;
18082;SDS011;9168;51.194;6.840;2022-11-12T12:38:45;9.27;;;3.55;;
18082;SDS011;9168;51.194;6.840;2022-11-12T12:41:18;12.00;;;3.63;;
18082;SDS011;9168;51.194;6.840;2022-11-12T12:43:52;8.15;;;3.20;;
18082;SDS011;9168;51.194;6.840;2022-11-12T12:46:23;7.07;;;3.33;;
18082;SDS011;9168;51.194;6.840;2022-11-12T12:48:52;8.38;;;3.10;;
18082;SDS011;9168;51.194;6.840;2022-11-12T12:51:22;7.50;;;3.55;;
18082;SDS011;9168;51.194;6.840;2022-11-12T12:53:54;9.02;;;3.15;;
18082;SDS011;9168;51.194;6.840;2022-11-12T12:59:19;7.35;;;3.58;;
18082;SDS011;9168;51.194;6.840;2022-11-12T13:01:55;7.00;;;3.03;;
18082;SDS011;9168;51.194;6.840;2022-11-12T13:07:16;6.40;;;3.05;;
18082;SDS011;9168;51.194;6.840;2022-11-12T13:13:22;10.00;;;3.58;;
18082;SDS011;9168;51.194;6.840;2022-11-12T13:15:52;7.15;;;3.08;;
18082;SDS011;9168;51.194;6.840;2022-11-12T13:21:32;9.57;;;3.42;;
18082;SDS011;9168;51.194;6.840;2022-11-12T13:24:01;7.82;;;3.25;;
18082;SDS011;9168;51.194;6.840;2022-11-12T13:26:41;7.10;;;3.10;;
18082;SDS011;9168;51.194;6.840;2022-11-12T13:29:22;8.98;;;3.63;;
18082;SDS011;9168;51.194;6.840;2022-11-12T13:37:46;6.85;;;3.38;;
18082;SDS011;9168;51.194;6.840;2022-11-12T13:40:17;7.40;;;3.35;;
18082;SDS011;9168;51.194;6.840;2022-11-12T13:42:51;10.63;;;3.63;;
18082;SDS011;9168;51.194;6.840;2022-11-12T13:45:21;7.38;;;3.95;;
18082;SDS011;9168;51.194;6.840;2022-11-12T13:47:50;9.57;;;3.17;;
18082;SDS011;9168;51.194;6.840;2022-11-12T13:50:19;9.38;;;3.25;;
18082;SDS011;9168;51.194;6.840;2022-11-12T13:52:48;10.13;;;3.25;;
18082;SDS011;9168;51.194;6.840;2022-11-12T13:55:16;8.90;;;3.28;;
18082;SDS011;9168;51.194;6.840;2022-11-12T13:57:47;6.57;;;3.22;;
18082;SDS011;9168;51.194;6.840;2022-11-12T14:00:23;7.03;;;2.80;;
18082;SDS011;9168;51.194;6.840;2022-11-12T14:02:52;7.75;;;3.20;;
18082;SDS011;9168;51.194;6.840;2022-11-12T14:05:23;7.25;;;2.92;;
18082;SDS011;9168;51.194;6.840;2022-11-12T14:07:54;8.10;;;3.28;;
18082;SDS011;9168;51.194;6.840;2022-11-12T14:10:42;9.70;;;3.55;;
18082;SDS011;9168;51.194;6.840;2022-11-12T14:13:21;6.93;;;3.40;;
18082;SDS011;9168;51.194;6.840;2022-11-12T14:16:04;9.50;;;3.40;;
18082;SDS011;9168;51.194;6.840;2022-11-12T14:18:49;7.20;;;3.30;;
18082;SDS011;9168;51.194;6.840;2022-11-12T14:21:28;6.65;;;3.42;;
18082;SDS011;9168;51.194;6.840;2022-11-12T14:23:55;6.70;;;3.47;;
18082;SDS011;9168;51.194;6.840;2022-11-12T14:26:32;6.68;;;3.38;;
18082;SDS011;9168;51.194;6.840;2022-11-12T14:29:00;9.77;;;3.22;;
18082;SDS011;9168;51.194;6.840;2022-11-12T14:31:28;6.60;;;3.20;;
18082;SDS011;9168;51.194;6.840;2022-11-12T14:33:56;10.55;;;3.70;;
18082;SDS011;9168;51.194;6.840;2022-11-12T14:36:43;6.95;;;3.10;;
18082;SDS011;9168;51.194;6.840;2022-11-12T14:39:12;6.78;;;3.15;;
18082;SDS011;9168;51.194;6.840;2022-11-12T14:41:39;6.55;;;3.33;;
18082;SDS011;9168;51.194;6.840;2022-11-12T14:44:12;8.43;;;3.05;;
18082;SDS011;9168;51.194;6.840;2022-11-12T14:46:46;5.65;;;2.88;;
18082;SDS011;9168;51.194;6.840;2022-11-12T14:49:17;6.38;;;3.03;;
18082;SDS011;9168;51.194;6.840;2022-11-12T14:51:46;6.65;;;2.97;;
18082;SDS011;9168;51.194;6.840;2022-11-12T14:54:18;5.72;;;2.63;;
18082;SDS011;9168;51.194;6.840;2022-11-12T14:56:53;5.30;;;2.50;;
18082;SDS011;9168;51.194;6.840;2022-11-12T14:59:21;7.47;;;2.42;;
18082;SDS011;9168;51.194;6.840;2022-11-12T15:02:05;8.73;;;2.90;;
18082;SDS011;9168;51.194;6.840;2022-11-12T15:04:35;7.05;;;2.78;;
18082;SDS011;9168;51.194;6.840;2022-11-12T15:07:03;6.32;;;2.95;;
18082;SDS011;9168;51.194;6.840;2022-11-12T15:09:31;6.30;;;2.70;;
18082;SDS011;9168;51.194;6.840;2022-11-12T15:11:59;8.55;;;2.60;;
18082;SDS011;9168;51.194;6.840;2022-11-12T15:14:27;6.78;;;3.25;;
18082;SDS011;9168;51.194;6.840;2022-11-12T15:16:54;6.10;;;2.78;;
18082;SDS011;9168;51.194;6.840;2022-11-12T15:19:23;5.65;;;2.65;;
18082;SDS011;9168;51.194;6.840;2022-11-12T15:21:52;8.77;;;2.72;;
18082;SDS011;9168;51.194;6.840;2022-11-12T15:24:24;4.63;;;2.53;;
18082;SDS011;9168;51.194;6.840;2022-11-12T15:26:53;7.47;;;2.92;;
18082;SDS011;9168;51.194;6.840;2022-11-12T15:29:23;11.77;;;2.92;;
18082;SDS011;9168;51.194;6.840;2022-11-12T15:31:53;12.70;;;3.33;;
18082;SDS011;9168;51.194;6.840;2022-11-12T15:34:26;9.90;;;3.10;;
18082;SDS011;9168;51.194;6.840;2022-11-12T15:36:55;8.23;;;3.38;;
18082;SDS011;9168;51.194;6.840;2022-11-12T15:39:25;10.10;;;4.13;;
18082;SDS011;9168;51.194;6.840;2022-11-12T15:41:57;11.13;;;3.95;;